sensor_id;sensor_type;location;lat;lon;timestamp;P1;durP1;ratioP1;P2;durP2;ratioP2
4268;SDS011;2148;48.554;7.834;2023-07-24T00:01:16;8.07;;;6.73;;
4268;SDS011;2148;48.554;7.834;2023-07-24T00:03:43;7.73;;;6.93;;
4268;SDS011;2148;48.554;7.834;2023-07-24T00:06:08;9.07;;;7.50;;
4268;SDS011;2148;48.554;7.834;2023-07-24T00:08:34;8.73;;;7.23;;
4268;SDS011;2148;48.554;7.834;2023-07-24T00:10:59;7.70;;;6.90;;
4268;SDS011;2148;48.554;7.834;2023-07-24T00:13:24;8.90;;;7.10;;
4268;SDS011;2148;48.554;7.834;2023-07-24T00:15:50;7.37;;;6.67;;
4268;SDS011;2148;48.554;7.834;2023-07-24T00:18:15;8.50;;;7.20;;
4268;SDS011;2148;48.554;7.834;2023-07-24T00:20:40;7.73;;;6.93;;
4268;SDS011;2148;48.554;7.834;2023-07-24T00:23:06;8.43;;;7.03;;
4268;SDS011;2148;48.554;7.834;2023-07-24T00:25:31;8.83;;;7.17;;
4268;SDS011;2148;48.554;7.834;2023-07-24T00:27:56;8.03;;;6.97;;
4268;SDS011;2148;48.554;7.834;2023-07-24T00:30:22;10.83;;;7.30;;
4268;SDS011;2148;48.554;7.834;2023-07-24T00:32:47;8.73;;;6.90;;
4268;SDS011;2148;48.554;7.834;2023-07-24T00:35:12;8.60;;;7.70;;
4268;SDS011;2148;48.554;7.834;2023-07-24T00:37:38;8.37;;;7.30;;
4268;SDS011;2148;48.554;7.834;2023-07-24T00:40:03;8.23;;;6.43;;
4268;SDS011;2148;48.554;7.834;2023-07-24T00:42:29;8.37;;;7.47;;
4268;SDS011;2148;48.554;7.834;2023-07-24T00:44:54;10.33;;;7.60;;
4268;SDS011;2148;48.554;7.834;2023-07-24T00:47:20;9.67;;;6.80;;
4268;SDS011;2148;48.554;7.834;2023-07-24T00:49:46;8.30;;;6.93;;
4268;SDS011;2148;48.554;7.834;2023-07-24T00:52:12;9.20;;;7.13;;
4268;SDS011;2148;48.554;7.834;2023-07-24T00:54:37;8.73;;;7.20;;
4268;SDS011;2148;48.554;7.834;2023-07-24T00:57:03;9.37;;;7.33;;
4268;SDS011;2148;48.554;7.834;2023-07-24T00:59:29;9.03;;;7.70;;
4268;SDS011;2148;48.554;7.834;2023-07-24T01:01:54;8.80;;;6.97;;
4268;SDS011;2148;48.554;7.834;2023-07-24T01:04:19;8.93;;;7.10;;
4268;SDS011;2148;48.554;7.834;2023-07-24T01:06:45;8.23;;;7.03;;
4268;SDS011;2148;48.554;7.834;2023-07-24T01:09:10;8.77;;;7.23;;
4268;SDS011;2148;48.554;7.834;2023-07-24T01:11:37;9.77;;;7.90;;
4268;SDS011;2148;48.554;7.834;2023-07-24T01:14:23;7.30;;;6.40;;
4268;SDS011;2148;48.554;7.834;2023-07-24T01:16:50;9.93;;;7.13;;
4268;SDS011;2148;48.554;7.834;2023-07-24T01:25:01;7.70;;;6.90;;
4268;SDS011;2148;48.554;7.834;2023-07-24T01:27:32;8.23;;;6.67;;
4268;SDS011;2148;48.554;7.834;2023-07-24T01:29:57;8.03;;;7.20;;
4268;SDS011;2148;48.554;7.834;2023-07-24T01:32:22;7.27;;;6.43;;
4268;SDS011;2148;48.554;7.834;2023-07-24T01:34:48;8.47;;;6.90;;
4268;SDS011;2148;48.554;7.834;2023-07-24T01:37:13;9.27;;;7.47;;
4268;SDS011;2148;48.554;7.834;2023-07-24T01:39:40;10.03;;;7.70;;
4268;SDS011;2148;48.554;7.834;2023-07-24T01:42:06;8.90;;;7.30;;
4268;SDS011;2148;48.554;7.834;2023-07-24T01:44:31;8.03;;;7.27;;
4268;SDS011;2148;48.554;7.834;2023-07-24T01:46:56;7.83;;;7.03;;
4268;SDS011;2148;48.554;7.834;2023-07-24T01:49:22;9.13;;;6.93;;
4268;SDS011;2148;48.554;7.834;2023-07-24T01:51:47;7.50;;;6.57;;
4268;SDS011;2148;48.554;7.834;2023-07-24T01:54:12;9.50;;;6.80;;
4268;SDS011;2148;48.554;7.834;2023-07-24T01:56:37;8.53;;;7.50;;
4268;SDS011;2148;48.554;7.834;2023-07-24T01:59:04;8.97;;;7.10;;
4268;SDS011;2148;48.554;7.834;2023-07-24T02:01:30;9.13;;;7.37;;
4268;SDS011;2148;48.554;7.834;2023-07-24T02:03:55;7.47;;;6.67;;
4268;SDS011;2148;48.554;7.834;2023-07-24T02:06:20;8.50;;;7.10;;
4268;SDS011;2148;48.554;7.834;2023-07-24T02:08:45;8.60;;;7.17;;
4268;SDS011;2148;48.554;7.834;2023-07-24T02:11:14;8.53;;;7.57;;
4268;SDS011;2148;48.554;7.834;2023-07-24T02:13:43;8.67;;;7.13;;
4268;SDS011;2148;48.554;7.834;2023-07-24T02:16:09;9.10;;;7.07;;
4268;SDS011;2148;48.554;7.834;2023-07-24T02:18:34;8.30;;;6.53;;
4268;SDS011;2148;48.554;7.834;2023-07-24T02:21:00;9.20;;;7.27;;
4268;SDS011;2148;48.554;7.834;2023-07-24T02:23:25;8.50;;;6.77;;
4268;SDS011;2148;48.554;7.834;2023-07-24T02:25:51;7.27;;;6.57;;
4268;SDS011;2148;48.554;7.834;2023-07-24T02:28:17;8.20;;;7.07;;
4268;SDS011;2148;48.554;7.834;2023-07-24T02:30:42;10.27;;;7.23;;
4268;SDS011;2148;48.554;7.834;2023-07-24T02:33:08;7.57;;;6.70;;
4268;SDS011;2148;48.554;7.834;2023-07-24T02:35:38;9.40;;;7.03;;
4268;SDS011;2148;48.554;7.834;2023-07-24T02:38:04;7.30;;;6.60;;
4268;SDS011;2148;48.554;7.834;2023-07-24T02:40:30;8.97;;;7.17;;
4268;SDS011;2148;48.554;7.834;2023-07-24T02:42:55;7.90;;;6.63;;
4268;SDS011;2148;48.554;7.834;2023-07-24T02:45:20;11.13;;;7.17;;
4268;SDS011;2148;48.554;7.834;2023-07-24T02:47:45;8.70;;;6.83;;
4268;SDS011;2148;48.554;7.834;2023-07-24T02:50:11;7.00;;;6.30;;
4268;SDS011;2148;48.554;7.834;2023-07-24T02:52:36;8.00;;;6.97;;
4268;SDS011;2148;48.554;7.834;2023-07-24T02:55:01;8.77;;;7.30;;
4268;SDS011;2148;48.554;7.834;2023-07-24T02:57:26;8.13;;;6.40;;
4268;SDS011;2148;48.554;7.834;2023-07-24T02:59:51;8.60;;;7.53;;
4268;SDS011;2148;48.554;7.834;2023-07-24T03:02:17;8.23;;;7.33;;
4268;SDS011;2148;48.554;7.834;2023-07-24T03:04:42;8.53;;;7.13;;
4268;SDS011;2148;48.554;7.834;2023-07-24T03:07:07;10.13;;;7.27;;
4268;SDS011;2148;48.554;7.834;2023-07-24T03:09:32;8.57;;;7.10;;
4268;SDS011;2148;48.554;7.834;2023-07-24T03:11:58;10.80;;;7.37;;
4268;SDS011;2148;48.554;7.834;2023-07-24T03:14:23;10.63;;;7.43;;
4268;SDS011;2148;48.554;7.834;2023-07-24T03:16:48;8.93;;;7.40;;
4268;SDS011;2148;48.554;7.834;2023-07-24T03:19:13;9.53;;;7.73;;
4268;SDS011;2148;48.554;7.834;2023-07-24T03:21:39;9.67;;;7.80;;
4268;SDS011;2148;48.554;7.834;2023-07-24T03:24:04;8.23;;;6.97;;
4268;SDS011;2148;48.554;7.834;2023-07-24T03:26:29;8.03;;;7.20;;
4268;SDS011;2148;48.554;7.834;2023-07-24T03:28:54;9.47;;;7.20;;
4268;SDS011;2148;48.554;7.834;2023-07-24T03:31:20;9.37;;;6.83;;
4268;SDS011;2148;48.554;7.834;2023-07-24T03:33:45;9.93;;;8.07;;
4268;SDS011;2148;48.554;7.834;2023-07-24T03:36:10;11.83;;;7.40;;
4268;SDS011;2148;48.554;7.834;2023-07-24T03:38:35;10.30;;;8.53;;
4268;SDS011;2148;48.554;7.834;2023-07-24T03:41:01;9.03;;;7.93;;
4268;SDS011;2148;48.554;7.834;2023-07-24T03:43:26;8.27;;;7.47;;
4268;SDS011;2148;48.554;7.834;2023-07-24T03:45:51;9.67;;;7.10;;
4268;SDS011;2148;48.554;7.834;2023-07-24T03:48:16;8.63;;;7.43;;
4268;SDS011;2148;48.554;7.834;2023-07-24T03:50:41;9.30;;;7.37;;
4268;SDS011;2148;48.554;7.834;2023-07-24T03:53:07;8.50;;;7.60;;
4268;SDS011;2148;48.554;7.834;2023-07-24T03:55:32;9.67;;;8.03;;
4268;SDS011;2148;48.554;7.834;2023-07-24T03:57:57;9.27;;;7.80;;
4268;SDS011;2148;48.554;7.834;2023-07-24T04:00:22;9.50;;;7.70;;
4268;SDS011;2148;48.554;7.834;2023-07-24T04:02:48;9.27;;;7.63;;
4268;SDS011;2148;48.554;7.834;2023-07-24T04:05:13;14.37;;;7.33;;
4268;SDS011;2148;48.554;7.834;2023-07-24T04:07:38;10.97;;;7.87;;
4268;SDS011;2148;48.554;7.834;2023-07-24T04:10:04;9.23;;;7.67;;
4268;SDS011;2148;48.554;7.834;2023-07-24T04:12:30;10.67;;;7.33;;
4268;SDS011;2148;48.554;7.834;2023-07-24T04:14:55;10.03;;;7.53;;
4268;SDS011;2148;48.554;7.834;2023-07-24T04:17:20;8.87;;;7.47;;
4268;SDS011;2148;48.554;7.834;2023-07-24T04:19:46;7.53;;;6.47;;
4268;SDS011;2148;48.554;7.834;2023-07-24T04:22:11;8.97;;;7.77;;
4268;SDS011;2148;48.554;7.834;2023-07-24T04:24:36;8.50;;;6.60;;
4268;SDS011;2148;48.554;7.834;2023-07-24T04:27:01;10.80;;;7.33;;
4268;SDS011;2148;48.554;7.834;2023-07-24T04:29:27;9.83;;;7.80;;
4268;SDS011;2148;48.554;7.834;2023-07-24T04:31:52;9.10;;;7.80;;
4268;SDS011;2148;48.554;7.834;2023-07-24T04:34:17;10.27;;;8.13;;
4268;SDS011;2148;48.554;7.834;2023-07-24T04:36:43;10.73;;;8.20;;
4268;SDS011;2148;48.554;7.834;2023-07-24T04:39:08;10.33;;;7.30;;
4268;SDS011;2148;48.554;7.834;2023-07-24T04:41:33;8.43;;;7.57;;
4268;SDS011;2148;48.554;7.834;2023-07-24T04:43:58;8.77;;;7.13;;
4268;SDS011;2148;48.554;7.834;2023-07-24T04:46:23;9.10;;;7.20;;
4268;SDS011;2148;48.554;7.834;2023-07-24T04:48:49;9.77;;;7.80;;
4268;SDS011;2148;48.554;7.834;2023-07-24T04:51:14;9.87;;;7.47;;
4268;SDS011;2148;48.554;7.834;2023-07-24T04:53:39;10.67;;;8.53;;
4268;SDS011;2148;48.554;7.834;2023-07-24T04:56:04;11.50;;;7.93;;
4268;SDS011;2148;48.554;7.834;2023-07-24T04:58:30;11.23;;;8.20;;
4268;SDS011;2148;48.554;7.834;2023-07-24T05:00:55;10.83;;;8.20;;
4268;SDS011;2148;48.554;7.834;2023-07-24T05:03:20;9.87;;;7.90;;
4268;SDS011;2148;48.554;7.834;2023-07-24T05:05:53;8.37;;;7.30;;
4268;SDS011;2148;48.554;7.834;2023-07-24T05:08:19;8.33;;;7.53;;
4268;SDS011;2148;48.554;7.834;2023-07-24T05:10:45;9.53;;;7.53;;
4268;SDS011;2148;48.554;7.834;2023-07-24T05:13:10;10.00;;;7.73;;
4268;SDS011;2148;48.554;7.834;2023-07-24T05:15:35;8.83;;;7.87;;
4268;SDS011;2148;48.554;7.834;2023-07-24T05:18:00;9.57;;;8.03;;
4268;SDS011;2148;48.554;7.834;2023-07-24T05:20:25;9.37;;;7.87;;
4268;SDS011;2148;48.554;7.834;2023-07-24T05:22:51;9.13;;;7.53;;
4268;SDS011;2148;48.554;7.834;2023-07-24T05:25:16;9.10;;;6.90;;
4268;SDS011;2148;48.554;7.834;2023-07-24T05:27:41;9.20;;;7.90;;
4268;SDS011;2148;48.554;7.834;2023-07-24T05:30:06;10.00;;;7.70;;
4268;SDS011;2148;48.554;7.834;2023-07-24T05:32:32;9.83;;;7.63;;
4268;SDS011;2148;48.554;7.834;2023-07-24T05:34:57;10.00;;;7.50;;
4268;SDS011;2148;48.554;7.834;2023-07-24T05:37:22;9.33;;;7.30;;
4268;SDS011;2148;48.554;7.834;2023-07-24T05:39:48;13.00;;;8.53;;
4268;SDS011;2148;48.554;7.834;2023-07-24T05:42:13;11.37;;;7.60;;
4268;SDS011;2148;48.554;7.834;2023-07-24T05:44:38;14.17;;;8.07;;
4268;SDS011;2148;48.554;7.834;2023-07-24T05:47:03;8.50;;;7.17;;
4268;SDS011;2148;48.554;7.834;2023-07-24T05:49:29;10.40;;;8.43;;
4268;SDS011;2148;48.554;7.834;2023-07-24T05:51:54;9.97;;;8.20;;
4268;SDS011;2148;48.554;7.834;2023-07-24T05:54:19;9.47;;;7.83;;
4268;SDS011;2148;48.554;7.834;2023-07-24T05:56:45;12.43;;;7.53;;
4268;SDS011;2148;48.554;7.834;2023-07-24T05:59:10;10.63;;;8.53;;
4268;SDS011;2148;48.554;7.834;2023-07-24T06:01:35;11.23;;;8.93;;
4268;SDS011;2148;48.554;7.834;2023-07-24T06:04:00;10.87;;;8.50;;
4268;SDS011;2148;48.554;7.834;2023-07-24T06:06:26;10.93;;;8.13;;
4268;SDS011;2148;48.554;7.834;2023-07-24T06:08:53;8.80;;;7.67;;
4268;SDS011;2148;48.554;7.834;2023-07-24T06:11:18;10.43;;;8.00;;
4268;SDS011;2148;48.554;7.834;2023-07-24T06:13:43;10.40;;;7.23;;
4268;SDS011;2148;48.554;7.834;2023-07-24T06:16:08;9.53;;;8.10;;
4268;SDS011;2148;48.554;7.834;2023-07-24T06:18:34;12.47;;;8.80;;
4268;SDS011;2148;48.554;7.834;2023-07-24T06:20:59;10.20;;;8.80;;
4268;SDS011;2148;48.554;7.834;2023-07-24T06:23:24;9.70;;;7.30;;
4268;SDS011;2148;48.554;7.834;2023-07-24T06:25:50;12.70;;;8.47;;
4268;SDS011;2148;48.554;7.834;2023-07-24T06:28:16;9.83;;;8.20;;
4268;SDS011;2148;48.554;7.834;2023-07-24T06:30:42;10.60;;;8.67;;
4268;SDS011;2148;48.554;7.834;2023-07-24T06:33:07;9.90;;;7.93;;
4268;SDS011;2148;48.554;7.834;2023-07-24T06:35:32;10.17;;;8.17;;
4268;SDS011;2148;48.554;7.834;2023-07-24T06:37:57;11.63;;;7.67;;
4268;SDS011;2148;48.554;7.834;2023-07-24T06:40:23;15.33;;;9.87;;
4268;SDS011;2148;48.554;7.834;2023-07-24T06:42:48;11.60;;;8.63;;
4268;SDS011;2148;48.554;7.834;2023-07-24T06:45:13;12.97;;;9.37;;
4268;SDS011;2148;48.554;7.834;2023-07-24T06:47:38;9.77;;;8.73;;
4268;SDS011;2148;48.554;7.834;2023-07-24T06:50:04;11.07;;;8.50;;
4268;SDS011;2148;48.554;7.834;2023-07-24T06:52:31;9.47;;;8.40;;
4268;SDS011;2148;48.554;7.834;2023-07-24T06:54:56;14.53;;;9.23;;
4268;SDS011;2148;48.554;7.834;2023-07-24T06:57:23;13.03;;;8.20;;
4268;SDS011;2148;48.554;7.834;2023-07-24T06:59:48;11.67;;;8.67;;
4268;SDS011;2148;48.554;7.834;2023-07-24T07:02:13;10.40;;;8.27;;
4268;SDS011;2148;48.554;7.834;2023-07-24T07:04:39;12.50;;;8.03;;
4268;SDS011;2148;48.554;7.834;2023-07-24T07:07:04;10.83;;;8.47;;
4268;SDS011;2148;48.554;7.834;2023-07-24T07:09:29;11.53;;;7.87;;
4268;SDS011;2148;48.554;7.834;2023-07-24T07:11:55;10.17;;;7.97;;
4268;SDS011;2148;48.554;7.834;2023-07-24T07:14:20;10.10;;;8.03;;
4268;SDS011;2148;48.554;7.834;2023-07-24T07:16:45;11.47;;;7.93;;
4268;SDS011;2148;48.554;7.834;2023-07-24T07:19:12;10.07;;;7.50;;
4268;SDS011;2148;48.554;7.834;2023-07-24T07:21:37;8.70;;;7.67;;
4268;SDS011;2148;48.554;7.834;2023-07-24T07:24:03;10.27;;;7.50;;
4268;SDS011;2148;48.554;7.834;2023-07-24T07:26:28;10.37;;;7.70;;
4268;SDS011;2148;48.554;7.834;2023-07-24T07:28:54;12.00;;;8.03;;
4268;SDS011;2148;48.554;7.834;2023-07-24T07:31:20;10.27;;;8.20;;
4268;SDS011;2148;48.554;7.834;2023-07-24T07:33:45;12.63;;;8.37;;
4268;SDS011;2148;48.554;7.834;2023-07-24T07:36:11;9.13;;;7.70;;
4268;SDS011;2148;48.554;7.834;2023-07-24T07:38:37;10.60;;;7.10;;
4268;SDS011;2148;48.554;7.834;2023-07-24T07:41:04;11.00;;;8.00;;
4268;SDS011;2148;48.554;7.834;2023-07-24T07:43:30;10.10;;;7.87;;
4268;SDS011;2148;48.554;7.834;2023-07-24T07:45:55;11.30;;;8.20;;
4268;SDS011;2148;48.554;7.834;2023-07-24T07:48:21;9.37;;;7.70;;
4268;SDS011;2148;48.554;7.834;2023-07-24T07:50:49;10.50;;;6.83;;
4268;SDS011;2148;48.554;7.834;2023-07-24T07:53:15;8.70;;;7.80;;
4268;SDS011;2148;48.554;7.834;2023-07-24T07:55:40;9.60;;;7.60;;
4268;SDS011;2148;48.554;7.834;2023-07-24T07:58:06;8.53;;;7.03;;
4268;SDS011;2148;48.554;7.834;2023-07-24T08:00:31;10.03;;;7.90;;
4268;SDS011;2148;48.554;7.834;2023-07-24T08:02:56;9.67;;;7.23;;
4268;SDS011;2148;48.554;7.834;2023-07-24T08:05:21;10.13;;;7.87;;
4268;SDS011;2148;48.554;7.834;2023-07-24T08:07:47;10.40;;;7.50;;
4268;SDS011;2148;48.554;7.834;2023-07-24T08:10:12;9.83;;;7.40;;
4268;SDS011;2148;48.554;7.834;2023-07-24T08:12:39;8.93;;;7.50;;
4268;SDS011;2148;48.554;7.834;2023-07-24T08:15:05;9.10;;;7.30;;
4268;SDS011;2148;48.554;7.834;2023-07-24T08:17:31;12.37;;;7.80;;
4268;SDS011;2148;48.554;7.834;2023-07-24T08:19:56;11.67;;;7.23;;
4268;SDS011;2148;48.554;7.834;2023-07-24T08:22:21;10.77;;;7.80;;
4268;SDS011;2148;48.554;7.834;2023-07-24T08:24:47;10.77;;;7.60;;
4268;SDS011;2148;48.554;7.834;2023-07-24T08:27:15;9.70;;;7.60;;
4268;SDS011;2148;48.554;7.834;2023-07-24T08:29:40;9.20;;;6.97;;
4268;SDS011;2148;48.554;7.834;2023-07-24T08:32:05;9.30;;;7.93;;
4268;SDS011;2148;48.554;7.834;2023-07-24T08:34:32;9.07;;;7.43;;
4268;SDS011;2148;48.554;7.834;2023-07-24T08:36:57;9.83;;;6.93;;
4268;SDS011;2148;48.554;7.834;2023-07-24T08:39:23;8.47;;;6.97;;
4268;SDS011;2148;48.554;7.834;2023-07-24T08:41:48;9.20;;;7.17;;
4268;SDS011;2148;48.554;7.834;2023-07-24T08:44:13;10.13;;;7.47;;
4268;SDS011;2148;48.554;7.834;2023-07-24T08:46:39;9.57;;;7.83;;
4268;SDS011;2148;48.554;7.834;2023-07-24T08:49:06;9.23;;;7.07;;
4268;SDS011;2148;48.554;7.834;2023-07-24T08:51:35;7.70;;;6.77;;
4268;SDS011;2148;48.554;7.834;2023-07-24T08:54:00;9.30;;;6.93;;
4268;SDS011;2148;48.554;7.834;2023-07-24T08:56:26;9.00;;;6.93;;
4268;SDS011;2148;48.554;7.834;2023-07-24T08:58:51;8.93;;;7.17;;
4268;SDS011;2148;48.554;7.834;2023-07-24T09:01:16;9.10;;;6.93;;
4268;SDS011;2148;48.554;7.834;2023-07-24T09:03:42;10.10;;;7.17;;
4268;SDS011;2148;48.554;7.834;2023-07-24T09:06:07;9.27;;;7.13;;
4268;SDS011;2148;48.554;7.834;2023-07-24T09:08:33;11.07;;;8.17;;
4268;SDS011;2148;48.554;7.834;2023-07-24T09:11:05;8.53;;;6.97;;
4268;SDS011;2148;48.554;7.834;2023-07-24T09:13:31;9.10;;;7.57;;
4268;SDS011;2148;48.554;7.834;2023-07-24T09:15:57;8.80;;;7.03;;
4268;SDS011;2148;48.554;7.834;2023-07-24T09:18:24;12.03;;;7.73;;
4268;SDS011;2148;48.554;7.834;2023-07-24T09:20:49;9.93;;;7.27;;
4268;SDS011;2148;48.554;7.834;2023-07-24T09:23:15;9.23;;;7.50;;
4268;SDS011;2148;48.554;7.834;2023-07-24T09:25:41;8.60;;;7.10;;
4268;SDS011;2148;48.554;7.834;2023-07-24T09:28:14;9.40;;;7.90;;
4268;SDS011;2148;48.554;7.834;2023-07-24T09:30:50;9.57;;;7.60;;
4268;SDS011;2148;48.554;7.834;2023-07-24T09:33:17;10.20;;;7.23;;
4268;SDS011;2148;48.554;7.834;2023-07-24T09:35:42;8.27;;;6.73;;
4268;SDS011;2148;48.554;7.834;2023-07-24T09:38:08;9.60;;;7.63;;
4268;SDS011;2148;48.554;7.834;2023-07-24T09:40:41;8.53;;;7.47;;
4268;SDS011;2148;48.554;7.834;2023-07-24T09:43:15;11.13;;;7.90;;
4268;SDS011;2148;48.554;7.834;2023-07-24T09:45:40;8.17;;;7.27;;
4268;SDS011;2148;48.554;7.834;2023-07-24T09:48:06;8.90;;;6.63;;
4268;SDS011;2148;48.554;7.834;2023-07-24T09:50:36;8.73;;;6.77;;
4268;SDS011;2148;48.554;7.834;2023-07-24T09:53:01;9.00;;;5.90;;
4268;SDS011;2148;48.554;7.834;2023-07-24T09:55:29;7.13;;;6.20;;
4268;SDS011;2148;48.554;7.834;2023-07-24T09:57:55;9.27;;;6.20;;
4268;SDS011;2148;48.554;7.834;2023-07-24T10:00:21;8.53;;;5.70;;
4268;SDS011;2148;48.554;7.834;2023-07-24T10:02:47;7.17;;;5.87;;
4268;SDS011;2148;48.554;7.834;2023-07-24T10:05:13;8.47;;;6.63;;
4268;SDS011;2148;48.554;7.834;2023-07-24T10:07:38;7.63;;;5.77;;
4268;SDS011;2148;48.554;7.834;2023-07-24T10:10:04;5.90;;;5.30;;
4268;SDS011;2148;48.554;7.834;2023-07-24T10:12:30;7.40;;;6.30;;
4268;SDS011;2148;48.554;7.834;2023-07-24T10:14:57;7.10;;;5.33;;
4268;SDS011;2148;48.554;7.834;2023-07-24T10:17:36;10.13;;;5.70;;
4268;SDS011;2148;48.554;7.834;2023-07-24T10:20:05;8.27;;;6.27;;
4268;SDS011;2148;48.554;7.834;2023-07-24T10:22:32;8.27;;;5.60;;
4268;SDS011;2148;48.554;7.834;2023-07-24T10:24:57;8.37;;;5.93;;
4268;SDS011;2148;48.554;7.834;2023-07-24T10:27:23;6.63;;;5.37;;
4268;SDS011;2148;48.554;7.834;2023-07-24T10:30:01;7.33;;;5.50;;
4268;SDS011;2148;48.554;7.834;2023-07-24T10:32:28;7.03;;;5.77;;
4268;SDS011;2148;48.554;7.834;2023-07-24T10:35:06;7.80;;;6.30;;
4268;SDS011;2148;48.554;7.834;2023-07-24T10:37:35;8.77;;;6.47;;
4268;SDS011;2148;48.554;7.834;2023-07-24T10:40:02;7.07;;;5.43;;
4268;SDS011;2148;48.554;7.834;2023-07-24T10:42:29;9.33;;;5.77;;
4268;SDS011;2148;48.554;7.834;2023-07-24T10:45:05;7.80;;;5.70;;
4268;SDS011;2148;48.554;7.834;2023-07-24T10:47:31;8.03;;;5.13;;
4268;SDS011;2148;48.554;7.834;2023-07-24T10:49:57;6.03;;;5.13;;
4268;SDS011;2148;48.554;7.834;2023-07-24T10:52:32;7.63;;;6.17;;
4268;SDS011;2148;48.554;7.834;2023-07-24T10:55:01;8.23;;;6.03;;
4268;SDS011;2148;48.554;7.834;2023-07-24T10:57:27;7.33;;;5.60;;
4268;SDS011;2148;48.554;7.834;2023-07-24T10:59:53;7.03;;;5.80;;
4268;SDS011;2148;48.554;7.834;2023-07-24T11:02:18;8.00;;;5.70;;
4268;SDS011;2148;48.554;7.834;2023-07-24T11:04:44;6.93;;;5.93;;
4268;SDS011;2148;48.554;7.834;2023-07-24T11:07:10;6.63;;;6.00;;
4268;SDS011;2148;48.554;7.834;2023-07-24T11:09:36;7.47;;;5.53;;
4268;SDS011;2148;48.554;7.834;2023-07-24T11:14:48;6.73;;;6.10;;
4268;SDS011;2148;48.554;7.834;2023-07-24T11:17:14;7.50;;;6.23;;
4268;SDS011;2148;48.554;7.834;2023-07-24T11:19:39;6.93;;;6.23;;
4268;SDS011;2148;48.554;7.834;2023-07-24T11:22:05;9.73;;;6.53;;
4268;SDS011;2148;48.554;7.834;2023-07-24T11:24:30;8.63;;;6.57;;
4268;SDS011;2148;48.554;7.834;2023-07-24T11:26:55;7.37;;;5.30;;
4268;SDS011;2148;48.554;7.834;2023-07-24T11:29:21;8.10;;;6.47;;
4268;SDS011;2148;48.554;7.834;2023-07-24T11:31:46;6.90;;;5.77;;
4268;SDS011;2148;48.554;7.834;2023-07-24T11:34:11;8.33;;;6.33;;
4268;SDS011;2148;48.554;7.834;2023-07-24T11:36:37;8.03;;;7.00;;
4268;SDS011;2148;48.554;7.834;2023-07-24T11:39:02;9.23;;;6.77;;
4268;SDS011;2148;48.554;7.834;2023-07-24T11:41:28;8.50;;;6.60;;
4268;SDS011;2148;48.554;7.834;2023-07-24T11:43:54;7.47;;;6.43;;
4268;SDS011;2148;48.554;7.834;2023-07-24T11:46:23;7.53;;;5.83;;
4268;SDS011;2148;48.554;7.834;2023-07-24T11:48:53;8.13;;;6.10;;
4268;SDS011;2148;48.554;7.834;2023-07-24T11:51:21;7.73;;;5.97;;
4268;SDS011;2148;48.554;7.834;2023-07-24T11:53:46;7.60;;;6.40;;
4268;SDS011;2148;48.554;7.834;2023-07-24T11:56:15;7.50;;;5.77;;
4268;SDS011;2148;48.554;7.834;2023-07-24T11:58:42;7.93;;;5.80;;
4268;SDS011;2148;48.554;7.834;2023-07-24T12:01:07;7.63;;;6.17;;
4268;SDS011;2148;48.554;7.834;2023-07-24T12:03:32;6.70;;;5.80;;
4268;SDS011;2148;48.554;7.834;2023-07-24T12:05:58;6.47;;;5.00;;
4268;SDS011;2148;48.554;7.834;2023-07-24T12:08:30;9.20;;;6.00;;
4268;SDS011;2148;48.554;7.834;2023-07-24T12:10:56;7.27;;;5.63;;
4268;SDS011;2148;48.554;7.834;2023-07-24T12:13:21;7.43;;;5.60;;
4268;SDS011;2148;48.554;7.834;2023-07-24T12:15:47;7.57;;;6.07;;
4268;SDS011;2148;48.554;7.834;2023-07-24T12:18:13;6.00;;;5.40;;
4268;SDS011;2148;48.554;7.834;2023-07-24T12:20:38;6.60;;;5.40;;
4268;SDS011;2148;48.554;7.834;2023-07-24T12:23:03;7.57;;;5.60;;
4268;SDS011;2148;48.554;7.834;2023-07-24T12:25:28;7.17;;;5.90;;
4268;SDS011;2148;48.554;7.834;2023-07-24T12:27:54;6.53;;;5.77;;
4268;SDS011;2148;48.554;7.834;2023-07-24T12:30:19;6.50;;;5.20;;
4268;SDS011;2148;48.554;7.834;2023-07-24T12:32:44;6.40;;;5.30;;
4268;SDS011;2148;48.554;7.834;2023-07-24T12:35:10;7.57;;;5.50;;
4268;SDS011;2148;48.554;7.834;2023-07-24T12:37:35;7.83;;;5.63;;
4268;SDS011;2148;48.554;7.834;2023-07-24T12:40:01;6.43;;;5.40;;
4268;SDS011;2148;48.554;7.834;2023-07-24T12:42:27;9.80;;;5.57;;
4268;SDS011;2148;48.554;7.834;2023-07-24T12:44:52;7.43;;;6.37;;
4268;SDS011;2148;48.554;7.834;2023-07-24T12:47:18;6.97;;;5.27;;
4268;SDS011;2148;48.554;7.834;2023-07-24T12:49:43;6.37;;;5.63;;
4268;SDS011;2148;48.554;7.834;2023-07-24T12:52:08;8.20;;;5.87;;
4268;SDS011;2148;48.554;7.834;2023-07-24T12:54:34;6.23;;;5.50;;
4268;SDS011;2148;48.554;7.834;2023-07-24T12:57:00;6.37;;;5.50;;
4268;SDS011;2148;48.554;7.834;2023-07-24T12:59:26;7.17;;;5.70;;
4268;SDS011;2148;48.554;7.834;2023-07-24T13:01:51;6.70;;;5.10;;
4268;SDS011;2148;48.554;7.834;2023-07-24T13:04:16;6.23;;;5.07;;
4268;SDS011;2148;48.554;7.834;2023-07-24T13:06:42;6.27;;;5.40;;
4268;SDS011;2148;48.554;7.834;2023-07-24T13:09:07;6.33;;;5.27;;
4268;SDS011;2148;48.554;7.834;2023-07-24T13:11:33;6.40;;;5.20;;
4268;SDS011;2148;48.554;7.834;2023-07-24T13:13:58;6.30;;;4.80;;
4268;SDS011;2148;48.554;7.834;2023-07-24T13:16:23;7.77;;;5.30;;
4268;SDS011;2148;48.554;7.834;2023-07-24T13:18:49;6.57;;;5.10;;
4268;SDS011;2148;48.554;7.834;2023-07-24T13:21:14;6.53;;;5.30;;
4268;SDS011;2148;48.554;7.834;2023-07-24T13:23:40;6.67;;;5.50;;
4268;SDS011;2148;48.554;7.834;2023-07-24T13:26:05;7.07;;;5.37;;
4268;SDS011;2148;48.554;7.834;2023-07-24T13:28:33;6.40;;;5.00;;
4268;SDS011;2148;48.554;7.834;2023-07-24T13:30:58;6.23;;;4.90;;
4268;SDS011;2148;48.554;7.834;2023-07-24T13:33:24;5.23;;;4.50;;
4268;SDS011;2148;48.554;7.834;2023-07-24T13:35:49;4.40;;;4.00;;
4268;SDS011;2148;48.554;7.834;2023-07-24T13:38:16;3.30;;;2.80;;
4268;SDS011;2148;48.554;7.834;2023-07-24T13:40:41;4.83;;;4.30;;
4268;SDS011;2148;48.554;7.834;2023-07-24T13:43:06;5.97;;;4.77;;
4268;SDS011;2148;48.554;7.834;2023-07-24T13:45:32;6.70;;;5.23;;
4268;SDS011;2148;48.554;7.834;2023-07-24T13:47:57;5.73;;;4.67;;
4268;SDS011;2148;48.554;7.834;2023-07-24T13:50:23;6.87;;;4.13;;
4268;SDS011;2148;48.554;7.834;2023-07-24T13:52:48;6.07;;;3.70;;
4268;SDS011;2148;48.554;7.834;2023-07-24T13:55:14;8.67;;;5.30;;
4268;SDS011;2148;48.554;7.834;2023-07-24T13:57:40;5.70;;;3.83;;
4268;SDS011;2148;48.554;7.834;2023-07-24T14:00:05;6.43;;;4.63;;
4268;SDS011;2148;48.554;7.834;2023-07-24T14:02:31;4.63;;;3.93;;
4268;SDS011;2148;48.554;7.834;2023-07-24T14:04:56;6.33;;;4.77;;
4268;SDS011;2148;48.554;7.834;2023-07-24T14:07:21;4.03;;;3.57;;
4268;SDS011;2148;48.554;7.834;2023-07-24T14:09:47;5.40;;;4.90;;
4268;SDS011;2148;48.554;7.834;2023-07-24T14:12:12;6.53;;;4.93;;
4268;SDS011;2148;48.554;7.834;2023-07-24T14:14:38;5.27;;;4.77;;
4268;SDS011;2148;48.554;7.834;2023-07-24T14:17:03;6.40;;;5.33;;
4268;SDS011;2148;48.554;7.834;2023-07-24T14:19:28;5.50;;;4.03;;
4268;SDS011;2148;48.554;7.834;2023-07-24T14:21:54;5.20;;;4.43;;
4268;SDS011;2148;48.554;7.834;2023-07-24T14:24:19;6.13;;;4.90;;
4268;SDS011;2148;48.554;7.834;2023-07-24T14:26:44;6.40;;;5.20;;
4268;SDS011;2148;48.554;7.834;2023-07-24T14:29:10;5.77;;;3.70;;
4268;SDS011;2148;48.554;7.834;2023-07-24T14:31:36;4.53;;;3.63;;
4268;SDS011;2148;48.554;7.834;2023-07-24T14:34:02;4.97;;;3.37;;
4268;SDS011;2148;48.554;7.834;2023-07-24T14:36:28;5.80;;;5.03;;
4268;SDS011;2148;48.554;7.834;2023-07-24T14:38:58;7.17;;;4.40;;
4268;SDS011;2148;48.554;7.834;2023-07-24T14:41:26;6.50;;;5.37;;
4268;SDS011;2148;48.554;7.834;2023-07-24T14:43:52;7.67;;;5.23;;
4268;SDS011;2148;48.554;7.834;2023-07-24T14:46:17;5.57;;;4.97;;
4268;SDS011;2148;48.554;7.834;2023-07-24T14:48:42;5.83;;;5.23;;
4268;SDS011;2148;48.554;7.834;2023-07-24T14:51:08;5.97;;;4.37;;
4268;SDS011;2148;48.554;7.834;2023-07-24T14:53:33;5.20;;;4.60;;
4268;SDS011;2148;48.554;7.834;2023-07-24T14:55:58;6.13;;;5.23;;
4268;SDS011;2148;48.554;7.834;2023-07-24T14:58:23;6.33;;;5.07;;
4268;SDS011;2148;48.554;7.834;2023-07-24T15:00:49;6.40;;;5.27;;
4268;SDS011;2148;48.554;7.834;2023-07-24T15:03:14;6.47;;;5.43;;
4268;SDS011;2148;48.554;7.834;2023-07-24T15:05:39;5.87;;;5.27;;
4268;SDS011;2148;48.554;7.834;2023-07-24T15:08:04;5.77;;;5.03;;
4268;SDS011;2148;48.554;7.834;2023-07-24T15:10:29;6.77;;;5.23;;
4268;SDS011;2148;48.554;7.834;2023-07-24T15:12:55;6.17;;;5.27;;